Map

Track Data

SID SEASON NUMBER BASIN SUBBASIN NAME ISO_TIME NATURE LAT LON WMO_WIND WMO_PRES WMO_AGENCY TRACK_TYPE DIST2LAND LANDFALL IFLAG USA_AGENCY USA_ATCF_ID USA_LAT USA_LON USA_RECORD USA_STATUS USA_WIND USA_PRES USA_SSHS USA_R34_NE USA_R34_SE USA_R34_SW USA_R34_NW USA_R50_NE USA_R50_SE USA_R50_SW USA_R50_NW USA_R64_NE USA_R64_SE USA_R64_SW USA_R64_NW USA_POCI USA_ROCI USA_RMW USA_EYE TOKYO_LAT TOKYO_LON TOKYO_GRADE TOKYO_WIND TOKYO_PRES TOKYO_R50_DIR TOKYO_R50_LONG TOKYO_R50_SHORT TOKYO_R30_DIR TOKYO_R30_LONG TOKYO_R30_SHORT TOKYO_LAND CMA_LAT CMA_LON CMA_CAT CMA_WIND CMA_PRES HKO_LAT HKO_LON HKO_CAT HKO_WIND HKO_PRES NEWDELHI_LAT NEWDELHI_LON NEWDELHI_GRADE NEWDELHI_WIND NEWDELHI_PRES NEWDELHI_CI NEWDELHI_DP NEWDELHI_POCI REUNION_LAT REUNION_LON REUNION_TYPE REUNION_WIND REUNION_PRES REUNION_TNUM REUNION_CI REUNION_RMW REUNION_R34_NE REUNION_R34_SE REUNION_R34_SW REUNION_R34_NW REUNION_R50_NE REUNION_R50_SE REUNION_R50_SW REUNION_R50_NW REUNION_R64_NE REUNION_R64_SE REUNION_R64_SW REUNION_R64_NW BOM_LAT BOM_LON BOM_TYPE BOM_WIND BOM_PRES BOM_TNUM BOM_CI BOM_RMW BOM_R34_NE BOM_R34_SE BOM_R34_SW BOM_R34_NW BOM_R50_NE BOM_R50_SE BOM_R50_SW BOM_R50_NW BOM_R64_NE BOM_R64_SE BOM_R64_SW BOM_R64_NW BOM_ROCI BOM_POCI BOM_EYE BOM_POS_METHOD BOM_PRES_METHOD NADI_LAT NADI_LON NADI_CAT NADI_WIND NADI_PRES WELLINGTON_LAT WELLINGTON_LON WELLINGTON_WIND WELLINGTON_PRES DS824_LAT DS824_LON DS824_STAGE DS824_WIND DS824_PRES TD9636_LAT TD9636_LON TD9636_STAGE TD9636_WIND TD9636_PRES TD9635_LAT TD9635_LON TD9635_WIND TD9635_PRES TD9635_ROCI NEUMANN_LAT NEUMANN_LON NEUMANN_CLASS NEUMANN_WIND NEUMANN_PRES MLC_LAT MLC_LON MLC_CLASS MLC_WIND MLC_PRES USA_GUST BOM_GUST BOM_GUST_PER REUNION_GUST REUNION_GUST_PER USA_SEAHGT USA_SEARAD_NE USA_SEARAD_SE USA_SEARAD_SW USA_SEARAD_NW STORM_SPEED STORM_DIR
1877121S07090 1877 12 SI MM NOT_NAMED 1877-04-30 18:00:00 NR -7.20000 89.7000 main 1192 1192 __________O___ -1 -7.20000 89.7000 7 13 240
1877121S07090 1877 12 SI MM NOT_NAMED 1877-04-30 21:00:00 NR -7.52736 89.1228 main 1266 1266 __________P___ -1 -7.52736 89.1228 7 13 240
1877121S07090 1877 12 SI MM NOT_NAMED 1877-05-01 00:00:00 NR -7.83345 88.5761 main 1330 1330 __________P___ -1 -7.83345 88.5761 7 12 241
1877121S07090 1877 12 SI MM NOT_NAMED 1877-05-01 03:00:00 NR -8.09776 88.0912 main 1395 1395 __________P___ -1 -8.09776 88.0912 7 10 242
1877121S07090 1877 12 SI MM NOT_NAMED 1877-05-01 06:00:00 NR -8.30000 87.7000 main 1444 1444 __________O___ -1 -8.30000 87.7000 7 7 243
1877121S07090 1877 12 SI MM NOT_NAMED 1877-05-01 09:00:00 NR -8.42805 87.4231 main 1479 1479 __________P___ -1 -8.42805 87.4231 7 5 246
1877121S07090 1877 12 SI MM NOT_NAMED 1877-05-01 12:00:00 NR -8.50206 87.2371 main 1503 1503 __________P___ -1 -8.50206 87.2371 7 3 249
1877121S07090 1877 12 SI MM NOT_NAMED 1877-05-01 15:00:00 NR -8.55005 87.1076 main 1518 1518 __________P___ -1 -8.55005 87.1076 7 3 247
1877121S07090 1877 12 SI MM NOT_NAMED 1877-05-01 18:00:00 NR -8.60000 87.0000 main 1528 1528 __________O___ -1 -8.60000 87.0000 7 3 240
1877121S07090 1877 12 SI MM NOT_NAMED 1877-05-01 21:00:00 NR -8.69277 86.8606 main 1543 1543 __________P___ -1 -8.69277 86.8606 7 3 234
1877121S07090 1877 12 SI MM NOT_NAMED 1877-05-02 00:00:00 NR -8.79245 86.7350 main 1568 1568 __________P___ -1 -8.79245 86.7350 7 3 230
1877121S07090 1877 12 SI MM NOT_NAMED 1877-05-02 03:00:00 NR -8.89590 86.6169 main 1583 1583 __________P___ -1 -8.89590 86.6169 7 3 228
1877121S07090 1877 12 SI MM NOT_NAMED 1877-05-02 06:00:00 NR -9.00000 86.5000 main 1598 1598 __________O___ -1 -9.00000 86.5000 7 3 229
1877121S07090 1877 12 SI MM NOT_NAMED 1877-05-02 09:00:00 NR -9.09998 86.3790 main 1613 1613 __________P___ -1 -9.09998 86.3790 7 3 230
1877121S07090 1877 12 SI MM NOT_NAMED 1877-05-02 12:00:00 NR -9.19997 86.2575 main 1628 1628 __________P___ -1 -9.19997 86.2575 7 3 231
1877121S07090 1877 12 SI MM NOT_NAMED 1877-05-02 15:00:00 NR -9.29997 86.1322 main 1653 1653 __________P___ -1 -9.29997 86.1322 7 3 232
1877121S07090 1877 12 SI MM NOT_NAMED 1877-05-02 18:00:00 NR -9.40000 86.0000 main 1668 1668 __________O___ -1 -9.40000 86.0000 7 3 233
1877121S07090 1877 12 SI MM NOT_NAMED 1877-05-02 21:00:00 NR -9.50407 85.8531 main 1683 1683 __________P___ -1 -9.50407 85.8531 7 4 235
1877121S07090 1877 12 SI MM NOT_NAMED 1877-05-03 00:00:00 NR -9.60751 85.7000 main 1708 1708 __________P___ -1 -9.60751 85.7000 7 4 236
1877121S07090 1877 12 SI MM NOT_NAMED 1877-05-03 03:00:00 NR -9.70719 85.5469 main 1732 1732 __________P___ -1 -9.70719 85.5469 7 4 237
1877121S07090 1877 12 SI MM NOT_NAMED 1877-05-03 06:00:00 NR -9.80000 85.4000 main 1747 1747 __________O___ -1 -9.80000 85.4000 7 3 239
1877121S07090 1877 12 SI MM NOT_NAMED 1877-05-03 09:00:00 NR -9.87403 85.2678 main 1762 1762 __________P___ -1 -9.87403 85.2678 7 3 241
1877121S07090 1877 12 SI MM NOT_NAMED 1877-05-03 12:00:00 NR -9.94246 85.1424 main 1781 1781 __________P___ -1 -9.94246 85.1424 7 3 240
1877121S07090 1877 12 SI MM NOT_NAMED 1877-05-03 15:00:00 NR -10.0147 85.0209 main 1797 1797 __________P___ -1 -10.0147 85.0209 7 3 236
1877121S07090 1877 12 SI MM NOT_NAMED 1877-05-03 18:00:00 NR -10.1000 84.9000 main 1812 1812 __________O___ -1 -10.1000 84.9000 7 3 230
1877121S07090 1877 12 SI MM NOT_NAMED 1877-05-03 21:00:00 NR -10.2147 84.7791 main 1827 1827 __________P___ -1 -10.2147 84.7791 7 3 225
1877121S07090 1877 12 SI MM NOT_NAMED 1877-05-04 00:00:00 NR -10.3425 84.6575 main 1842 1842 __________P___ -1 -10.3425 84.6575 7 4 223
1877121S07090 1877 12 SI MM NOT_NAMED 1877-05-04 03:00:00 NR -10.4740 84.5322 main 1872 1872 __________P___ -1 -10.4740 84.5322 7 4 224
1877121S07090 1877 12 SI MM NOT_NAMED 1877-05-04 06:00:00 NR -10.6000 84.4000 main 1887 1887 __________O___ -1 -10.6000 84.4000 7 4 229
1877121S07090 1877 12 SI MM NOT_NAMED 1877-05-04 09:00:00 NR -10.7072 84.2572 main 1902 1902 __________P___ -1 -10.7072 84.2572 7 4 234
1877121S07090 1877 12 SI MM NOT_NAMED 1877-05-04 12:00:00 NR -10.8075 84.1075 main 1910 1908 __________P___ -1 -10.8075 84.1075 7 4 237
1877121S07090 1877 12 SI MM NOT_NAMED 1877-05-04 15:00:00 NR -10.9041 83.9540 main 1919 1917 __________P___ -1 -10.9041 83.9540 7 4 237
1877121S07090 1877 12 SI MM NOT_NAMED 1877-05-04 18:00:00 NR -11.0000 83.8000 main 1926 1924 __________O___ -1 -11.0000 83.8000 7 4 237
1877121S07090 1877 12 SI MM NOT_NAMED 1877-05-04 21:00:00 NR -11.0978 83.6479 main 1933 1933 __________P___ -1 -11.0978 83.6479 7 4 236
1877121S07090 1877 12 SI MM NOT_NAMED 1877-05-05 00:00:00 NR -11.1975 83.4976 main 1942 1940 __________P___ -1 -11.1975 83.4976 7 4 236
1877121S07090 1877 12 SI MM NOT_NAMED 1877-05-05 03:00:00 NR -11.2985 83.3485 main 1950 1950 __________P___ -1 -11.2985 83.3485 7 4 235
1877121S07090 1877 12 SI MM NOT_NAMED 1877-05-05 06:00:00 NR -11.4000 83.2000 main 1959 __________O___ -1 -11.4000 83.2000 7 4 236

About IBTrACS Database

This database is a web-friendly format of International Best Track Archive for Climate Stewardship (IBTrACS), a global best track data archive curated by NOAA dating back to 1842.

Updated: 2021-11-26